sensor_id;sensor_type;location;lat;lon;timestamp;temperature;humidity
10247;DHT22;5168;47.854;7.944;2022-08-21T00:02:22;12.60;99.90
10247;DHT22;5168;47.854;7.944;2022-08-21T00:04:49;12.70;99.90
10247;DHT22;5168;47.854;7.944;2022-08-21T00:07:17;12.70;99.90
10247;DHT22;5168;47.854;7.944;2022-08-21T00:09:43;12.70;99.90
10247;DHT22;5168;47.854;7.944;2022-08-21T00:12:08;12.40;99.90
10247;DHT22;5168;47.854;7.944;2022-08-21T00:14:34;12.40;99.90
10247;DHT22;5168;47.854;7.944;2022-08-21T00:17:00;12.40;99.90
10247;DHT22;5168;47.854;7.944;2022-08-21T00:19:27;13.10;99.90
10247;DHT22;5168;47.854;7.944;2022-08-21T00:21:54;12.20;99.90
10247;DHT22;5168;47.854;7.944;2022-08-21T00:24:21;13.10;99.90
10247;DHT22;5168;47.854;7.944;2022-08-21T00:26:48;13.10;99.90
10247;DHT22;5168;47.854;7.944;2022-08-21T00:29:14;12.80;99.90
10247;DHT22;5168;47.854;7.944;2022-08-21T00:31:41;12.70;99.90
10247;DHT22;5168;47.854;7.944;2022-08-21T00:34:07;12.60;99.90
10247;DHT22;5168;47.854;7.944;2022-08-21T00:36:34;12.90;99.90
10247;DHT22;5168;47.854;7.944;2022-08-21T00:41:26;12.60;99.90
10247;DHT22;5168;47.854;7.944;2022-08-21T00:43:53;13.00;99.90
10247;DHT22;5168;47.854;7.944;2022-08-21T00:46:19;13.10;99.90
10247;DHT22;5168;47.854;7.944;2022-08-21T00:48:44;12.90;99.90
10247;DHT22;5168;47.854;7.944;2022-08-21T00:51:20;12.50;99.90
10247;DHT22;5168;47.854;7.944;2022-08-21T00:53:51;12.50;99.90
10247;DHT22;5168;47.854;7.944;2022-08-21T00:56:19;12.80;99.90
10247;DHT22;5168;47.854;7.944;2022-08-21T00:58:46;13.10;99.90
10247;DHT22;5168;47.854;7.944;2022-08-21T01:01:12;12.70;99.90
10247;DHT22;5168;47.854;7.944;2022-08-21T01:06:05;12.70;99.90
10247;DHT22;5168;47.854;7.944;2022-08-21T01:08:31;13.00;99.90
10247;DHT22;5168;47.854;7.944;2022-08-21T01:10:58;13.00;99.90
10247;DHT22;5168;47.854;7.944;2022-08-21T01:13:26;12.60;99.90
10247;DHT22;5168;47.854;7.944;2022-08-21T01:15:54;13.10;99.90
10247;DHT22;5168;47.854;7.944;2022-08-21T01:18:21;13.00;99.90
10247;DHT22;5168;47.854;7.944;2022-08-21T01:21:08;12.60;99.90
10247;DHT22;5168;47.854;7.944;2022-08-21T01:23:36;13.00;99.90
10247;DHT22;5168;47.854;7.944;2022-08-21T01:26:03;12.10;99.90
10247;DHT22;5168;47.854;7.944;2022-08-21T01:28:33;12.60;99.90
10247;DHT22;5168;47.854;7.944;2022-08-21T01:31:01;12.60;99.90
10247;DHT22;5168;47.854;7.944;2022-08-21T01:35:53;12.40;99.90
10247;DHT22;5168;47.854;7.944;2022-08-21T01:38:19;12.30;99.90
10247;DHT22;5168;47.854;7.944;2022-08-21T01:43:11;12.60;99.90
10247;DHT22;5168;47.854;7.944;2022-08-21T01:52:55;12.90;99.90
10247;DHT22;5168;47.854;7.944;2022-08-21T01:55:21;12.20;99.90
10247;DHT22;5168;47.854;7.944;2022-08-21T01:57:47;12.50;99.90
10247;DHT22;5168;47.854;7.944;2022-08-21T02:00:15;12.10;99.90
10247;DHT22;5168;47.854;7.944;2022-08-21T02:02:42;12.50;99.90
10247;DHT22;5168;47.854;7.944;2022-08-21T02:05:10;12.20;99.90
10247;DHT22;5168;47.854;7.944;2022-08-21T02:07:42;12.30;99.90
10247;DHT22;5168;47.854;7.944;2022-08-21T02:10:09;12.10;99.90
10247;DHT22;5168;47.854;7.944;2022-08-21T02:12:35;12.90;99.90
10247;DHT22;5168;47.854;7.944;2022-08-21T02:15:03;12.50;99.90
10247;DHT22;5168;47.854;7.944;2022-08-21T02:17:45;12.70;99.90
10247;DHT22;5168;47.854;7.944;2022-08-21T02:20:19;12.60;99.90
10247;DHT22;5168;47.854;7.944;2022-08-21T02:22:46;12.70;99.90
10247;DHT22;5168;47.854;7.944;2022-08-21T02:25:11;13.00;99.90
10247;DHT22;5168;47.854;7.944;2022-08-21T02:27:42;12.70;99.90
10247;DHT22;5168;47.854;7.944;2022-08-21T02:30:18;12.60;99.90
10247;DHT22;5168;47.854;7.944;2022-08-21T02:35:10;12.20;99.90
10247;DHT22;5168;47.854;7.944;2022-08-21T02:37:45;12.60;99.90
10247;DHT22;5168;47.854;7.944;2022-08-21T02:40:12;12.20;99.90
10247;DHT22;5168;47.854;7.944;2022-08-21T02:42:38;12.80;99.90
10247;DHT22;5168;47.854;7.944;2022-08-21T02:45:06;13.00;99.90
10247;DHT22;5168;47.854;7.944;2022-08-21T02:49:57;12.60;99.90
10247;DHT22;5168;47.854;7.944;2022-08-21T02:54:49;13.20;99.90
10247;DHT22;5168;47.854;7.944;2022-08-21T02:59:41;13.20;99.90
10247;DHT22;5168;47.854;7.944;2022-08-21T03:02:06;12.50;99.90
10247;DHT22;5168;47.854;7.944;2022-08-21T03:04:32;12.30;99.90
10247;DHT22;5168;47.854;7.944;2022-08-21T03:06:57;13.10;99.90
10247;DHT22;5168;47.854;7.944;2022-08-21T03:09:23;13.10;99.90
10247;DHT22;5168;47.854;7.944;2022-08-21T03:11:49;12.80;99.90
10247;DHT22;5168;47.854;7.944;2022-08-21T03:14:17;12.70;99.90
10247;DHT22;5168;47.854;7.944;2022-08-21T03:21:34;12.50;99.90
10247;DHT22;5168;47.854;7.944;2022-08-21T03:24:00;12.90;99.90
10247;DHT22;5168;47.854;7.944;2022-08-21T03:26:25;12.50;99.90
10247;DHT22;5168;47.854;7.944;2022-08-21T03:36:11;12.40;99.90
10247;DHT22;5168;47.854;7.944;2022-08-21T03:38:37;12.00;99.90
10247;DHT22;5168;47.854;7.944;2022-08-21T03:41:04;12.00;99.90
10247;DHT22;5168;47.854;7.944;2022-08-21T03:43:31;12.30;99.90
10247;DHT22;5168;47.854;7.944;2022-08-21T03:45:57;12.10;99.90
10247;DHT22;5168;47.854;7.944;2022-08-21T03:50:51;12.30;99.90
10247;DHT22;5168;47.854;7.944;2022-08-21T03:55:48;12.20;99.90
10247;DHT22;5168;47.854;7.944;2022-08-21T03:58:15;12.00;99.90
10247;DHT22;5168;47.854;7.944;2022-08-21T04:05:33;12.00;99.90
10247;DHT22;5168;47.854;7.944;2022-08-21T04:08:03;12.40;99.90
10247;DHT22;5168;47.854;7.944;2022-08-21T04:10:32;12.60;99.90
10247;DHT22;5168;47.854;7.944;2022-08-21T04:15:25;12.40;99.90
10247;DHT22;5168;47.854;7.944;2022-08-21T04:17:51;12.00;99.90
10247;DHT22;5168;47.854;7.944;2022-08-21T04:20:18;12.50;99.90
10247;DHT22;5168;47.854;7.944;2022-08-21T04:22:44;11.80;99.90
10247;DHT22;5168;47.854;7.944;2022-08-21T04:25:12;11.80;99.90
10247;DHT22;5168;47.854;7.944;2022-08-21T04:27:38;12.30;99.90
10247;DHT22;5168;47.854;7.944;2022-08-21T04:30:06;12.50;99.90
10247;DHT22;5168;47.854;7.944;2022-08-21T04:32:32;12.20;99.90
10247;DHT22;5168;47.854;7.944;2022-08-21T04:34:59;11.80;99.90
10247;DHT22;5168;47.854;7.944;2022-08-21T04:37:26;12.30;99.90
10247;DHT22;5168;47.854;7.944;2022-08-21T04:39:52;12.40;99.90
10247;DHT22;5168;47.854;7.944;2022-08-21T04:49:36;12.80;99.90
10247;DHT22;5168;47.854;7.944;2022-08-21T04:52:02;12.50;99.90
10247;DHT22;5168;47.854;7.944;2022-08-21T04:56:57;12.10;99.90
10247;DHT22;5168;47.854;7.944;2022-08-21T04:59:31;12.60;99.90
10247;DHT22;5168;47.854;7.944;2022-08-21T05:01:59;12.60;99.90
10247;DHT22;5168;47.854;7.944;2022-08-21T05:04:30;12.40;99.90
10247;DHT22;5168;47.854;7.944;2022-08-21T05:07:01;12.60;99.90
10247;DHT22;5168;47.854;7.944;2022-08-21T05:11:54;12.70;99.90
10247;DHT22;5168;47.854;7.944;2022-08-21T05:16:46;12.80;99.90
10247;DHT22;5168;47.854;7.944;2022-08-21T05:21:43;12.80;99.90
10247;DHT22;5168;47.854;7.944;2022-08-21T05:24:10;13.10;99.90
10247;DHT22;5168;47.854;7.944;2022-08-21T05:29:03;13.00;99.90
10247;DHT22;5168;47.854;7.944;2022-08-21T05:31:29;12.90;99.90
10247;DHT22;5168;47.854;7.944;2022-08-21T05:33:55;13.40;99.90
10247;DHT22;5168;47.854;7.944;2022-08-21T05:43:39;14.00;99.90
10247;DHT22;5168;47.854;7.944;2022-08-21T05:46:06;13.70;99.90
10247;DHT22;5168;47.854;7.944;2022-08-21T05:48:33;13.60;99.90
10247;DHT22;5168;47.854;7.944;2022-08-21T05:51:05;13.60;99.90
10247;DHT22;5168;47.854;7.944;2022-08-21T05:53:31;14.20;99.90
10247;DHT22;5168;47.854;7.944;2022-08-21T06:00:49;14.50;99.90
10247;DHT22;5168;47.854;7.944;2022-08-21T06:03:22;14.20;99.90
10247;DHT22;5168;47.854;7.944;2022-08-21T06:05:48;14.40;99.90
10247;DHT22;5168;47.854;7.944;2022-08-21T06:08:15;14.70;99.90
10247;DHT22;5168;47.854;7.944;2022-08-21T06:15:33;14.40;99.90
10247;DHT22;5168;47.854;7.944;2022-08-21T06:17:59;14.20;99.90
10247;DHT22;5168;47.854;7.944;2022-08-21T06:20:25;15.00;99.90
10247;DHT22;5168;47.854;7.944;2022-08-21T06:22:51;15.00;99.90
10247;DHT22;5168;47.854;7.944;2022-08-21T06:25:16;15.20;99.90
10247;DHT22;5168;47.854;7.944;2022-08-21T06:30:08;15.20;99.90
10247;DHT22;5168;47.854;7.944;2022-08-21T06:32:34;15.40;99.90
10247;DHT22;5168;47.854;7.944;2022-08-21T06:35:00;15.60;99.90
10247;DHT22;5168;47.854;7.944;2022-08-21T06:37:25;16.10;99.90
10247;DHT22;5168;47.854;7.944;2022-08-21T06:39:52;15.40;99.90
10247;DHT22;5168;47.854;7.944;2022-08-21T06:44:44;15.60;99.90
10247;DHT22;5168;47.854;7.944;2022-08-21T06:49:36;15.70;99.90
10247;DHT22;5168;47.854;7.944;2022-08-21T06:52:02;15.30;99.90
10247;DHT22;5168;47.854;7.944;2022-08-21T06:56:54;16.00;99.90
10247;DHT22;5168;47.854;7.944;2022-08-21T06:59:19;16.00;99.90
10247;DHT22;5168;47.854;7.944;2022-08-21T07:01:45;16.10;99.90
10247;DHT22;5168;47.854;7.944;2022-08-21T07:04:11;16.30;99.90
10247;DHT22;5168;47.854;7.944;2022-08-21T07:09:03;16.60;99.90
10247;DHT22;5168;47.854;7.944;2022-08-21T07:11:29;15.70;99.90
10247;DHT22;5168;47.854;7.944;2022-08-21T07:13:54;16.70;99.90
10247;DHT22;5168;47.854;7.944;2022-08-21T07:18:48;17.50;99.90
10247;DHT22;5168;47.854;7.944;2022-08-21T07:21:15;18.00;99.90
10247;DHT22;5168;47.854;7.944;2022-08-21T07:23:46;18.70;99.90
10247;DHT22;5168;47.854;7.944;2022-08-21T07:26:15;18.40;99.90
10247;DHT22;5168;47.854;7.944;2022-08-21T07:28:41;18.10;99.90
10247;DHT22;5168;47.854;7.944;2022-08-21T07:31:09;18.20;99.90
10247;DHT22;5168;47.854;7.944;2022-08-21T07:33:35;18.40;99.90
10247;DHT22;5168;47.854;7.944;2022-08-21T07:40:55;18.20;99.90
10247;DHT22;5168;47.854;7.944;2022-08-21T07:45:48;18.00;99.90
10247;DHT22;5168;47.854;7.944;2022-08-21T07:48:17;18.20;99.90
10247;DHT22;5168;47.854;7.944;2022-08-21T07:50:43;18.20;99.90
10247;DHT22;5168;47.854;7.944;2022-08-21T07:53:08;18.10;99.90
10247;DHT22;5168;47.854;7.944;2022-08-21T07:55:34;17.90;99.90
10247;DHT22;5168;47.854;7.944;2022-08-21T08:00:27;18.10;99.90
10247;DHT22;5168;47.854;7.944;2022-08-21T08:02:55;17.80;99.90
10247;DHT22;5168;47.854;7.944;2022-08-21T08:05:24;17.90;99.90
10247;DHT22;5168;47.854;7.944;2022-08-21T08:07:49;17.40;99.90
10247;DHT22;5168;47.854;7.944;2022-08-21T08:10:17;18.10;99.90
10247;DHT22;5168;47.854;7.944;2022-08-21T08:12:43;18.00;99.90
10247;DHT22;5168;47.854;7.944;2022-08-21T08:15:12;18.00;99.90
10247;DHT22;5168;47.854;7.944;2022-08-21T08:17:38;18.60;99.90
10247;DHT22;5168;47.854;7.944;2022-08-21T08:20:05;17.90;99.90
10247;DHT22;5168;47.854;7.944;2022-08-21T08:24:57;19.00;99.90
10247;DHT22;5168;47.854;7.944;2022-08-21T08:29:50;18.80;99.90
10247;DHT22;5168;47.854;7.944;2022-08-21T08:32:17;18.10;99.90
10247;DHT22;5168;47.854;7.944;2022-08-21T08:34:43;18.30;99.90
10247;DHT22;5168;47.854;7.944;2022-08-21T08:37:09;18.40;99.90
10247;DHT22;5168;47.854;7.944;2022-08-21T08:39:35;18.60;99.90
10247;DHT22;5168;47.854;7.944;2022-08-21T08:42:17;18.00;99.90
10247;DHT22;5168;47.854;7.944;2022-08-21T08:44:47;18.00;99.90
10247;DHT22;5168;47.854;7.944;2022-08-21T08:47:15;17.80;99.90
10247;DHT22;5168;47.854;7.944;2022-08-21T08:50:03;18.70;99.90
10247;DHT22;5168;47.854;7.944;2022-08-21T08:52:41;18.40;99.90
10247;DHT22;5168;47.854;7.944;2022-08-21T08:55:17;18.50;99.90
10247;DHT22;5168;47.854;7.944;2022-08-21T08:57:46;18.70;99.90
10247;DHT22;5168;47.854;7.944;2022-08-21T09:00:14;18.90;99.90
10247;DHT22;5168;47.854;7.944;2022-08-21T09:02:43;19.00;99.90
10247;DHT22;5168;47.854;7.944;2022-08-21T09:08:50;19.20;99.90
10247;DHT22;5168;47.854;7.944;2022-08-21T09:11:51;19.40;99.90
10247;DHT22;5168;47.854;7.944;2022-08-21T09:22:31;18.50;99.90
10247;DHT22;5168;47.854;7.944;2022-08-21T09:25:22;19.00;99.90
10247;DHT22;5168;47.854;7.944;2022-08-21T09:30:14;18.60;99.90
10247;DHT22;5168;47.854;7.944;2022-08-21T09:35:18;18.20;99.90
10247;DHT22;5168;47.854;7.944;2022-08-21T09:37:58;18.20;99.90
10247;DHT22;5168;47.854;7.944;2022-08-21T09:43:17;19.00;99.90
10247;DHT22;5168;47.854;7.944;2022-08-21T09:45:45;18.70;99.90
10247;DHT22;5168;47.854;7.944;2022-08-21T09:48:22;19.40;99.90
10247;DHT22;5168;47.854;7.944;2022-08-21T09:50:49;19.70;99.90
10247;DHT22;5168;47.854;7.944;2022-08-21T09:53:19;19.40;99.90
10247;DHT22;5168;47.854;7.944;2022-08-21T09:55:57;19.50;99.90
10247;DHT22;5168;47.854;7.944;2022-08-21T09:58:45;19.50;99.90
10247;DHT22;5168;47.854;7.944;2022-08-21T10:01:25;19.40;99.90
10247;DHT22;5168;47.854;7.944;2022-08-21T10:04:06;19.60;99.90
10247;DHT22;5168;47.854;7.944;2022-08-21T10:09:18;19.90;99.90
10247;DHT22;5168;47.854;7.944;2022-08-21T10:20:11;19.10;99.90
10247;DHT22;5168;47.854;7.944;2022-08-21T10:25:33;19.00;99.90
10247;DHT22;5168;47.854;7.944;2022-08-21T10:31:14;18.90;99.90
10247;DHT22;5168;47.854;7.944;2022-08-21T10:36:34;19.10;99.90
10247;DHT22;5168;47.854;7.944;2022-08-21T10:39:16;19.00;99.90
10247;DHT22;5168;47.854;7.944;2022-08-21T10:45:15;19.70;99.90
10247;DHT22;5168;47.854;7.944;2022-08-21T10:47:42;20.00;99.90
10247;DHT22;5168;47.854;7.944;2022-08-21T10:50:28;19.30;99.90
10247;DHT22;5168;47.854;7.944;2022-08-21T10:53:09;19.90;99.90
10247;DHT22;5168;47.854;7.944;2022-08-21T10:55:44;19.70;99.90
10247;DHT22;5168;47.854;7.944;2022-08-21T10:58:27;20.30;99.90
10247;DHT22;5168;47.854;7.944;2022-08-21T11:01:03;19.90;99.90
10247;DHT22;5168;47.854;7.944;2022-08-21T11:03:54;19.80;99.90
10247;DHT22;5168;47.854;7.944;2022-08-21T11:06:25;20.00;99.90
10247;DHT22;5168;47.854;7.944;2022-08-21T11:08:57;20.00;99.90
10247;DHT22;5168;47.854;7.944;2022-08-21T11:11:32;19.90;99.90
10247;DHT22;5168;47.854;7.944;2022-08-21T11:17:06;20.60;99.90
10247;DHT22;5168;47.854;7.944;2022-08-21T11:19:42;21.00;99.90
10247;DHT22;5168;47.854;7.944;2022-08-21T11:22:22;21.10;99.90
10247;DHT22;5168;47.854;7.944;2022-08-21T11:30:14;22.50;99.90
10247;DHT22;5168;47.854;7.944;2022-08-21T11:35:32;23.10;99.90
10247;DHT22;5168;47.854;7.944;2022-08-21T11:38:15;23.10;99.90
10247;DHT22;5168;47.854;7.944;2022-08-21T11:43:45;22.60;99.90
10247;DHT22;5168;47.854;7.944;2022-08-21T11:51:48;22.20;99.90
10247;DHT22;5168;47.854;7.944;2022-08-21T11:57:03;21.50;99.90
10247;DHT22;5168;47.854;7.944;2022-08-21T11:59:47;21.10;99.90
10247;DHT22;5168;47.854;7.944;2022-08-21T12:02:19;20.80;99.90
10247;DHT22;5168;47.854;7.944;2022-08-21T12:04:51;21.10;99.90
10247;DHT22;5168;47.854;7.944;2022-08-21T12:07:43;22.10;99.90
10247;DHT22;5168;47.854;7.944;2022-08-21T12:10:19;22.30;99.90
10247;DHT22;5168;47.854;7.944;2022-08-21T12:13:06;23.00;99.90
10247;DHT22;5168;47.854;7.944;2022-08-21T12:15:33;22.10;99.90
10247;DHT22;5168;47.854;7.944;2022-08-21T12:20:59;22.70;99.90
10247;DHT22;5168;47.854;7.944;2022-08-21T12:23:57;22.30;99.90
10247;DHT22;5168;47.854;7.944;2022-08-21T12:26:28;23.10;99.90
10247;DHT22;5168;47.854;7.944;2022-08-21T12:29:05;22.30;99.90
10247;DHT22;5168;47.854;7.944;2022-08-21T12:34:01;21.60;99.90
10247;DHT22;5168;47.854;7.944;2022-08-21T12:36:43;21.10;99.90
10247;DHT22;5168;47.854;7.944;2022-08-21T12:39:17;21.20;99.90
10247;DHT22;5168;47.854;7.944;2022-08-21T12:41:55;21.40;99.90
10247;DHT22;5168;47.854;7.944;2022-08-21T12:44:28;21.30;99.90
10247;DHT22;5168;47.854;7.944;2022-08-21T12:46:58;21.70;99.90
10247;DHT22;5168;47.854;7.944;2022-08-21T12:49:39;21.90;99.90
10247;DHT22;5168;47.854;7.944;2022-08-21T12:52:24;22.10;99.90
10247;DHT22;5168;47.854;7.944;2022-08-21T12:54:53;21.90;99.90
10247;DHT22;5168;47.854;7.944;2022-08-21T12:57:25;22.50;99.90
10247;DHT22;5168;47.854;7.944;2022-08-21T13:00:00;22.10;99.90
10247;DHT22;5168;47.854;7.944;2022-08-21T13:02:30;22.60;99.90
10247;DHT22;5168;47.854;7.944;2022-08-21T13:04:57;23.20;99.90
10247;DHT22;5168;47.854;7.944;2022-08-21T13:07:29;23.30;99.90
10247;DHT22;5168;47.854;7.944;2022-08-21T13:10:02;23.20;99.90
10247;DHT22;5168;47.854;7.944;2022-08-21T13:12:29;22.70;99.90
10247;DHT22;5168;47.854;7.944;2022-08-21T13:15:02;22.70;99.90
10247;DHT22;5168;47.854;7.944;2022-08-21T13:17:31;22.50;99.90
10247;DHT22;5168;47.854;7.944;2022-08-21T13:19:58;22.80;99.90
10247;DHT22;5168;47.854;7.944;2022-08-21T13:22:25;22.00;99.90
10247;DHT22;5168;47.854;7.944;2022-08-21T13:24:51;22.20;99.90
10247;DHT22;5168;47.854;7.944;2022-08-21T13:27:24;22.40;99.90
10247;DHT22;5168;47.854;7.944;2022-08-21T13:30:19;22.20;99.90
10247;DHT22;5168;47.854;7.944;2022-08-21T13:32:48;22.30;99.90
10247;DHT22;5168;47.854;7.944;2022-08-21T13:35:22;21.80;99.90
10247;DHT22;5168;47.854;7.944;2022-08-21T13:37:49;21.60;99.90
10247;DHT22;5168;47.854;7.944;2022-08-21T13:40:23;21.60;99.90
10247;DHT22;5168;47.854;7.944;2022-08-21T13:42:49;21.60;99.90
10247;DHT22;5168;47.854;7.944;2022-08-21T13:45:29;21.70;99.90
10247;DHT22;5168;47.854;7.944;2022-08-21T13:47:56;20.60;99.90
10247;DHT22;5168;47.854;7.944;2022-08-21T13:50:23;21.30;99.90
10247;DHT22;5168;47.854;7.944;2022-08-21T13:52:56;21.30;99.90
10247;DHT22;5168;47.854;7.944;2022-08-21T13:55:25;21.70;99.90
10247;DHT22;5168;47.854;7.944;2022-08-21T13:58:00;21.10;99.90
10247;DHT22;5168;47.854;7.944;2022-08-21T14:00:27;21.30;99.90
10247;DHT22;5168;47.854;7.944;2022-08-21T14:03:02;22.30;99.90
10247;DHT22;5168;47.854;7.944;2022-08-21T14:05:32;22.60;99.90
10247;DHT22;5168;47.854;7.944;2022-08-21T14:08:08;22.80;99.90
10247;DHT22;5168;47.854;7.944;2022-08-21T14:10:42;23.20;99.90
10247;DHT22;5168;47.854;7.944;2022-08-21T14:15:59;23.30;99.90
10247;DHT22;5168;47.854;7.944;2022-08-21T14:18:25;24.10;99.90
10247;DHT22;5168;47.854;7.944;2022-08-21T14:21:07;24.00;99.90
10247;DHT22;5168;47.854;7.944;2022-08-21T14:26:01;24.30;99.90
10247;DHT22;5168;47.854;7.944;2022-08-21T14:30:54;24.70;99.90
10247;DHT22;5168;47.854;7.944;2022-08-21T14:33:28;25.20;99.90
10247;DHT22;5168;47.854;7.944;2022-08-21T14:35:54;25.00;99.90
10247;DHT22;5168;47.854;7.944;2022-08-21T14:38:24;24.20;99.90
10247;DHT22;5168;47.854;7.944;2022-08-21T14:40:52;25.30;99.90
10247;DHT22;5168;47.854;7.944;2022-08-21T14:43:19;23.90;99.90
10247;DHT22;5168;47.854;7.944;2022-08-21T14:48:11;24.20;99.90
10247;DHT22;5168;47.854;7.944;2022-08-21T14:50:37;24.00;99.90
10247;DHT22;5168;47.854;7.944;2022-08-21T14:53:03;23.20;99.90
10247;DHT22;5168;47.854;7.944;2022-08-21T14:55:30;23.50;99.90
10247;DHT22;5168;47.854;7.944;2022-08-21T14:58:16;23.50;99.90
10247;DHT22;5168;47.854;7.944;2022-08-21T15:00:41;23.00;99.90
10247;DHT22;5168;47.854;7.944;2022-08-21T15:07:59;22.70;99.90
10247;DHT22;5168;47.854;7.944;2022-08-21T15:12:50;22.40;99.90
10247;DHT22;5168;47.854;7.944;2022-08-21T15:15:16;22.50;99.90
10247;DHT22;5168;47.854;7.944;2022-08-21T15:20:08;22.60;99.90
10247;DHT22;5168;47.854;7.944;2022-08-21T15:32:25;22.20;99.90
10247;DHT22;5168;47.854;7.944;2022-08-21T15:34:53;22.40;99.90
10247;DHT22;5168;47.854;7.944;2022-08-21T15:37:20;22.50;99.90
10247;DHT22;5168;47.854;7.944;2022-08-21T15:39:46;23.00;99.90
10247;DHT22;5168;47.854;7.944;2022-08-21T15:42:12;23.10;99.90
10247;DHT22;5168;47.854;7.944;2022-08-21T15:44:40;22.80;99.90
10247;DHT22;5168;47.854;7.944;2022-08-21T15:47:06;23.40;99.90
10247;DHT22;5168;47.854;7.944;2022-08-21T15:49:31;23.60;99.90
10247;DHT22;5168;47.854;7.944;2022-08-21T15:51:57;23.30;99.90
10247;DHT22;5168;47.854;7.944;2022-08-21T15:54:22;23.00;99.90
10247;DHT22;5168;47.854;7.944;2022-08-21T15:56:49;23.30;99.90
10247;DHT22;5168;47.854;7.944;2022-08-21T15:59:19;23.20;99.90
10247;DHT22;5168;47.854;7.944;2022-08-21T16:01:48;23.10;99.90
10247;DHT22;5168;47.854;7.944;2022-08-21T16:04:21;23.20;99.90
10247;DHT22;5168;47.854;7.944;2022-08-21T16:06:47;22.30;99.90
10247;DHT22;5168;47.854;7.944;2022-08-21T16:11:42;22.30;99.90
10247;DHT22;5168;47.854;7.944;2022-08-21T16:14:08;22.60;99.90
10247;DHT22;5168;47.854;7.944;2022-08-21T16:16:35;22.30;99.90
10247;DHT22;5168;47.854;7.944;2022-08-21T16:19:02;21.70;99.90
10247;DHT22;5168;47.854;7.944;2022-08-21T16:21:28;21.80;99.90
10247;DHT22;5168;47.854;7.944;2022-08-21T16:28:48;21.50;99.90
10247;DHT22;5168;47.854;7.944;2022-08-21T16:31:15;21.20;99.90
10247;DHT22;5168;47.854;7.944;2022-08-21T16:33:44;21.10;99.90
10247;DHT22;5168;47.854;7.944;2022-08-21T16:36:11;21.30;99.90
10247;DHT22;5168;47.854;7.944;2022-08-21T16:38:38;21.30;99.90
10247;DHT22;5168;47.854;7.944;2022-08-21T16:41:09;21.20;99.90
10247;DHT22;5168;47.854;7.944;2022-08-21T16:43:38;21.50;99.90
10247;DHT22;5168;47.854;7.944;2022-08-21T16:46:06;21.40;99.90
10247;DHT22;5168;47.854;7.944;2022-08-21T16:48:32;20.60;99.90
10247;DHT22;5168;47.854;7.944;2022-08-21T16:53:24;21.00;99.90
10247;DHT22;5168;47.854;7.944;2022-08-21T16:55:51;20.80;99.90
10247;DHT22;5168;47.854;7.944;2022-08-21T16:58:30;21.20;99.90
10247;DHT22;5168;47.854;7.944;2022-08-21T17:00:57;20.70;99.90
10247;DHT22;5168;47.854;7.944;2022-08-21T17:03:36;21.00;99.90
10247;DHT22;5168;47.854;7.944;2022-08-21T17:06:04;20.40;99.90
10247;DHT22;5168;47.854;7.944;2022-08-21T17:08:29;20.00;99.90
10247;DHT22;5168;47.854;7.944;2022-08-21T17:10:55;20.40;99.90
10247;DHT22;5168;47.854;7.944;2022-08-21T17:13:21;19.90;99.90
10247;DHT22;5168;47.854;7.944;2022-08-21T17:18:16;20.20;99.90
10247;DHT22;5168;47.854;7.944;2022-08-21T17:20:42;20.10;99.90
10247;DHT22;5168;47.854;7.944;2022-08-21T17:23:08;19.90;99.90
10247;DHT22;5168;47.854;7.944;2022-08-21T17:25:36;20.00;99.90
10247;DHT22;5168;47.854;7.944;2022-08-21T17:28:04;19.90;99.90
10247;DHT22;5168;47.854;7.944;2022-08-21T17:30:30;19.80;99.90
10247;DHT22;5168;47.854;7.944;2022-08-21T17:32:57;19.60;99.90
10247;DHT22;5168;47.854;7.944;2022-08-21T17:35:24;19.40;99.90
10247;DHT22;5168;47.854;7.944;2022-08-21T17:37:49;19.90;99.90
10247;DHT22;5168;47.854;7.944;2022-08-21T17:40:15;19.70;99.90
10247;DHT22;5168;47.854;7.944;2022-08-21T17:42:42;19.50;99.90
10247;DHT22;5168;47.854;7.944;2022-08-21T17:45:12;18.80;99.90
10247;DHT22;5168;47.854;7.944;2022-08-21T17:47:38;18.70;99.90
10247;DHT22;5168;47.854;7.944;2022-08-21T17:50:05;19.10;99.90
10247;DHT22;5168;47.854;7.944;2022-08-21T17:57:23;18.70;99.90
10247;DHT22;5168;47.854;7.944;2022-08-21T17:59:52;18.80;99.90
10247;DHT22;5168;47.854;7.944;2022-08-21T18:02:20;18.80;99.90
10247;DHT22;5168;47.854;7.944;2022-08-21T18:04:46;18.70;99.90
10247;DHT22;5168;47.854;7.944;2022-08-21T18:09:40;18.30;99.90
10247;DHT22;5168;47.854;7.944;2022-08-21T18:12:06;18.80;99.90
10247;DHT22;5168;47.854;7.944;2022-08-21T18:14:34;18.40;99.90
10247;DHT22;5168;47.854;7.944;2022-08-21T18:17:00;18.70;99.90
10247;DHT22;5168;47.854;7.944;2022-08-21T18:19:26;18.00;99.90
10247;DHT22;5168;47.854;7.944;2022-08-21T18:21:53;18.30;99.90
10247;DHT22;5168;47.854;7.944;2022-08-21T18:24:20;18.00;99.90
10247;DHT22;5168;47.854;7.944;2022-08-21T18:26:47;18.30;99.90
10247;DHT22;5168;47.854;7.944;2022-08-21T18:29:15;17.80;99.90
10247;DHT22;5168;47.854;7.944;2022-08-21T18:31:42;18.00;99.90
10247;DHT22;5168;47.854;7.944;2022-08-21T18:34:19;17.80;99.90
10247;DHT22;5168;47.854;7.944;2022-08-21T18:36:46;17.90;99.90
10247;DHT22;5168;47.854;7.944;2022-08-21T18:41:38;17.80;99.90
10247;DHT22;5168;47.854;7.944;2022-08-21T18:44:03;17.50;99.90
10247;DHT22;5168;47.854;7.944;2022-08-21T18:46:29;17.60;99.90
10247;DHT22;5168;47.854;7.944;2022-08-21T18:51:21;17.50;99.90
10247;DHT22;5168;47.854;7.944;2022-08-21T19:03:32;17.30;99.90
10247;DHT22;5168;47.854;7.944;2022-08-21T19:05:58;17.30;99.90
10247;DHT22;5168;47.854;7.944;2022-08-21T19:08:24;17.50;99.90
10247;DHT22;5168;47.854;7.944;2022-08-21T19:10:55;17.40;99.90
10247;DHT22;5168;47.854;7.944;2022-08-21T19:13:23;17.00;99.90
10247;DHT22;5168;47.854;7.944;2022-08-21T19:15:51;17.20;99.90
10247;DHT22;5168;47.854;7.944;2022-08-21T19:18:18;17.40;99.90
10247;DHT22;5168;47.854;7.944;2022-08-21T19:20:45;16.90;99.90
10247;DHT22;5168;47.854;7.944;2022-08-21T19:23:13;16.90;99.90
10247;DHT22;5168;47.854;7.944;2022-08-21T19:25:44;16.80;99.90
10247;DHT22;5168;47.854;7.944;2022-08-21T19:28:14;17.30;99.90
10247;DHT22;5168;47.854;7.944;2022-08-21T19:30:45;17.40;99.90
10247;DHT22;5168;47.854;7.944;2022-08-21T19:33:25;17.00;99.90
10247;DHT22;5168;47.854;7.944;2022-08-21T19:35:52;16.70;99.90
10247;DHT22;5168;47.854;7.944;2022-08-21T19:40:43;16.60;99.90
10247;DHT22;5168;47.854;7.944;2022-08-21T19:45:36;17.30;99.90
10247;DHT22;5168;47.854;7.944;2022-08-21T19:48:02;17.00;99.90
10247;DHT22;5168;47.854;7.944;2022-08-21T19:52:54;16.60;99.90
10247;DHT22;5168;47.854;7.944;2022-08-21T19:55:19;16.60;99.90
10247;DHT22;5168;47.854;7.944;2022-08-21T19:57:45;16.80;99.90
10247;DHT22;5168;47.854;7.944;2022-08-21T20:00:11;17.00;99.90
10247;DHT22;5168;47.854;7.944;2022-08-21T20:02:37;16.70;99.90
10247;DHT22;5168;47.854;7.944;2022-08-21T20:05:04;17.30;99.90
10247;DHT22;5168;47.854;7.944;2022-08-21T20:07:30;16.20;99.90
10247;DHT22;5168;47.854;7.944;2022-08-21T20:09:56;16.50;99.90
10247;DHT22;5168;47.854;7.944;2022-08-21T20:17:16;16.60;99.90
10247;DHT22;5168;47.854;7.944;2022-08-21T20:19:43;16.30;99.90
10247;DHT22;5168;47.854;7.944;2022-08-21T20:22:09;16.40;99.90